Zanderij の空港の天気 - METARとTAF

ヨハン・ペンヘル国際空港 ( SMJP / PBM ) - スリナム Zanderij
飛行場実況気象(Metar)
観測時間05/26 21:00 SRT (05/27 00:00 UTC)
風向・風速東 2m/s
視程10km以上
天気現象
少しの雲 雲底高度 240m
全天の4割程度の雲 雲底高度 610m
気温25℃
湿度94%
気圧1014hPa
METARSMJP 270000Z 08003KT 9999 FEW008 SCT020 25/24 Q1014 NOSIG
過去の天気等 Google飛行場航空写真 Wunderground天気予報

過去48時間のMETAR

飛行場予報(TAF)
発表時間: 5/26 19:00 SRT (5/26 22:00 UTC)
予報対象時間: 26日21時 SRT ~ 27日21時 SRT
風向・風速東北東 3m/s
視程10km以上
少しの雲 雲底高度 300m
全天の4割程度の雲 雲底高度 760m
27日5時 SRT ~ 27日9時 SRT に一時的に
視程800m
天気現象
全天の8割程度の雲 雲底高度 30m
27日15時 SRT ~ 27日19時 SRT に一時的に
視程5000m
天気現象しゅう雨
少しの塔状積雲 雲底高度 460m
全天の4割程度の雲 雲底高度 610m
TAF SMJP 262200Z 2700/2724 07005KT 9999 FEW010 SCT025 TX32/2716Z TN23/2708Z
TEMPO 2708/2712 0800 FG BKN001
TEMPO 2718/2722 5000 SHRA FEW015TCU SCT020